Terminal Aerodrome Forecast
Issued by NWS Upton, NY

Home | Current Version | Previous Version | Text Only | Print | Product List | Glossary On
Versions: 1 2 3 4 5 6 7 8 9 10 11 12 13 14 15 16 17 18 19 20 21 22 23 24 25 26 27 28 29 30 31 32
000
FTUS41 KOKX 071948 AAB
TAFJFK
TAF AMD
KJFK 071948Z 0720/0824 18017KT P6SM FEW008 BKN045
      TEMPO 0721/0723 -SHRA
     FM080200 21010KT P6SM SCT035 BKN250
     FM081400 25010KT P6SM SCT040 OVC100
     FM081800 23010KT P6SM BKN060=

USA.gov is the U.S. government's official web portal to all federal, state and local government web resources and services.